sensor_id;sensor_type;location;lat;lon;timestamp;P1;durP1;ratioP1;P2;durP2;ratioP2
13571;SDS011;6857;53.484;10.216;2024-03-23T00:52:57;19.83;;;4.20;;
13571;SDS011;6857;53.484;10.216;2024-03-23T00:55:23;20.10;;;4.60;;
13571;SDS011;6857;53.484;10.216;2024-03-23T00:57:49;13.60;;;4.07;;
13571;SDS011;6857;53.484;10.216;2024-03-23T01:00:15;18.83;;;3.80;;
13571;SDS011;6857;53.484;10.216;2024-03-23T01:02:40;17.93;;;4.07;;
13571;SDS011;6857;53.484;10.216;2024-03-23T01:05:06;13.90;;;3.77;;
13571;SDS011;6857;53.484;10.216;2024-03-23T01:07:32;21.70;;;4.13;;
13571;SDS011;6857;53.484;10.216;2024-03-23T01:09:57;15.03;;;3.37;;
13571;SDS011;6857;53.484;10.216;2024-03-23T01:12:23;19.73;;;3.67;;
13571;SDS011;6857;53.484;10.216;2024-03-23T01:14:48;18.57;;;4.23;;
13571;SDS011;6857;53.484;10.216;2024-03-23T01:17:14;15.03;;;3.60;;
13571;SDS011;6857;53.484;10.216;2024-03-23T01:19:39;21.07;;;4.53;;
13571;SDS011;6857;53.484;10.216;2024-03-23T01:22:06;17.97;;;3.70;;
13571;SDS011;6857;53.484;10.216;2024-03-23T01:24:32;21.93;;;4.43;;
13571;SDS011;6857;53.484;10.216;2024-03-23T01:26:58;26.33;;;4.37;;
13571;SDS011;6857;53.484;10.216;2024-03-23T01:29:23;26.83;;;3.97;;
13571;SDS011;6857;53.484;10.216;2024-03-23T01:31:49;22.10;;;4.93;;
13571;SDS011;6857;53.484;10.216;2024-03-23T01:34:14;20.73;;;3.80;;
13571;SDS011;6857;53.484;10.216;2024-03-23T01:36:40;16.43;;;4.37;;
13571;SDS011;6857;53.484;10.216;2024-03-23T01:39:05;26.67;;;4.33;;
13571;SDS011;6857;53.484;10.216;2024-03-23T01:41:34;20.83;;;4.17;;
13571;SDS011;6857;53.484;10.216;2024-03-23T01:44:00;16.43;;;3.97;;
13571;SDS011;6857;53.484;10.216;2024-03-23T01:46:31;17.10;;;3.90;;
13571;SDS011;6857;53.484;10.216;2024-03-23T01:48:56;20.67;;;3.73;;
13571;SDS011;6857;53.484;10.216;2024-03-23T01:51:22;18.30;;;4.03;;
13571;SDS011;6857;53.484;10.216;2024-03-23T01:53:48;17.20;;;3.77;;
13571;SDS011;6857;53.484;10.216;2024-03-23T01:56:14;17.63;;;4.20;;
13571;SDS011;6857;53.484;10.216;2024-03-23T01:58:40;22.37;;;4.50;;
13571;SDS011;6857;53.484;10.216;2024-03-23T02:01:05;18.43;;;3.87;;
13571;SDS011;6857;53.484;10.216;2024-03-23T02:03:31;26.37;;;4.07;;
13571;SDS011;6857;53.484;10.216;2024-03-23T02:05:57;22.17;;;3.90;;
13571;SDS011;6857;53.484;10.216;2024-03-23T02:08:23;16.13;;;3.50;;
13571;SDS011;6857;53.484;10.216;2024-03-23T02:10:49;18.47;;;3.70;;
13571;SDS011;6857;53.484;10.216;2024-03-23T02:13:15;20.67;;;4.33;;
13571;SDS011;6857;53.484;10.216;2024-03-23T02:15:42;12.57;;;3.70;;
13571;SDS011;6857;53.484;10.216;2024-03-23T02:18:08;18.00;;;4.57;;
13571;SDS011;6857;53.484;10.216;2024-03-23T02:20:34;17.53;;;3.60;;
13571;SDS011;6857;53.484;10.216;2024-03-23T02:23:00;25.13;;;4.23;;
13571;SDS011;6857;53.484;10.216;2024-03-23T02:25:26;16.63;;;3.50;;
13571;SDS011;6857;53.484;10.216;2024-03-23T02:27:51;23.37;;;3.83;;
13571;SDS011;6857;53.484;10.216;2024-03-23T02:30:19;22.83;;;3.63;;
13571;SDS011;6857;53.484;10.216;2024-03-23T02:32:45;18.80;;;3.70;;
13571;SDS011;6857;53.484;10.216;2024-03-23T02:35:10;18.90;;;3.33;;
13571;SDS011;6857;53.484;10.216;2024-03-23T02:37:36;21.20;;;3.83;;
13571;SDS011;6857;53.484;10.216;2024-03-23T02:40:01;17.97;;;3.87;;
13571;SDS011;6857;53.484;10.216;2024-03-23T02:42:27;16.57;;;3.73;;
13571;SDS011;6857;53.484;10.216;2024-03-23T02:44:53;16.57;;;3.53;;
13571;SDS011;6857;53.484;10.216;2024-03-23T02:47:19;21.87;;;4.53;;
13571;SDS011;6857;53.484;10.216;2024-03-23T02:49:44;23.00;;;4.10;;
13571;SDS011;6857;53.484;10.216;2024-03-23T02:52:10;14.70;;;4.07;;
13571;SDS011;6857;53.484;10.216;2024-03-23T02:54:36;19.03;;;3.67;;
13571;SDS011;6857;53.484;10.216;2024-03-23T02:57:01;14.73;;;3.37;;
13571;SDS011;6857;53.484;10.216;2024-03-23T02:59:27;18.37;;;3.93;;
13571;SDS011;6857;53.484;10.216;2024-03-23T03:01:53;16.73;;;3.30;;
13571;SDS011;6857;53.484;10.216;2024-03-23T03:04:18;14.33;;;3.93;;
13571;SDS011;6857;53.484;10.216;2024-03-23T03:06:47;19.30;;;4.30;;
13571;SDS011;6857;53.484;10.216;2024-03-23T03:09:12;10.67;;;3.30;;
13571;SDS011;6857;53.484;10.216;2024-03-23T03:11:38;19.30;;;4.03;;
13571;SDS011;6857;53.484;10.216;2024-03-23T03:14:04;21.87;;;5.20;;
13571;SDS011;6857;53.484;10.216;2024-03-23T03:16:32;20.53;;;3.83;;
13571;SDS011;6857;53.484;10.216;2024-03-23T03:18:57;19.70;;;4.27;;
13571;SDS011;6857;53.484;10.216;2024-03-23T03:21:23;13.13;;;4.17;;
13571;SDS011;6857;53.484;10.216;2024-03-23T03:23:48;21.43;;;3.83;;
13571;SDS011;6857;53.484;10.216;2024-03-23T03:26:15;19.10;;;3.77;;
13571;SDS011;6857;53.484;10.216;2024-03-23T03:28:44;15.40;;;3.60;;
13571;SDS011;6857;53.484;10.216;2024-03-23T03:31:13;24.93;;;5.13;;
13571;SDS011;6857;53.484;10.216;2024-03-23T03:33:39;20.87;;;4.30;;
13571;SDS011;6857;53.484;10.216;2024-03-23T03:36:05;26.53;;;4.57;;
13571;SDS011;6857;53.484;10.216;2024-03-23T03:38:31;18.63;;;5.10;;
13571;SDS011;6857;53.484;10.216;2024-03-23T03:40:56;16.80;;;3.20;;
13571;SDS011;6857;53.484;10.216;2024-03-23T03:43:23;25.90;;;4.40;;
13571;SDS011;6857;53.484;10.216;2024-03-23T03:45:56;19.87;;;4.10;;
13571;SDS011;6857;53.484;10.216;2024-03-23T03:48:23;15.97;;;3.63;;
13571;SDS011;6857;53.484;10.216;2024-03-23T03:50:51;22.60;;;3.77;;
13571;SDS011;6857;53.484;10.216;2024-03-23T03:53:17;23.03;;;5.00;;
13571;SDS011;6857;53.484;10.216;2024-03-23T03:55:43;17.60;;;4.10;;
13571;SDS011;6857;53.484;10.216;2024-03-23T03:58:08;23.07;;;4.23;;
13571;SDS011;6857;53.484;10.216;2024-03-23T04:00:34;18.80;;;3.83;;
13571;SDS011;6857;53.484;10.216;2024-03-23T04:03:00;25.83;;;4.40;;
13571;SDS011;6857;53.484;10.216;2024-03-23T04:05:26;27.80;;;4.67;;
13571;SDS011;6857;53.484;10.216;2024-03-23T04:07:51;22.43;;;5.40;;
13571;SDS011;6857;53.484;10.216;2024-03-23T04:10:17;21.37;;;4.23;;
13571;SDS011;6857;53.484;10.216;2024-03-23T04:12:43;21.77;;;4.87;;
13571;SDS011;6857;53.484;10.216;2024-03-23T04:15:09;21.63;;;4.20;;
13571;SDS011;6857;53.484;10.216;2024-03-23T04:17:35;22.40;;;4.97;;
13571;SDS011;6857;53.484;10.216;2024-03-23T04:20:01;23.17;;;4.87;;
13571;SDS011;6857;53.484;10.216;2024-03-23T04:22:29;19.23;;;5.47;;
13571;SDS011;6857;53.484;10.216;2024-03-23T04:24:55;23.63;;;4.57;;
13571;SDS011;6857;53.484;10.216;2024-03-23T04:27:21;19.73;;;4.90;;
13571;SDS011;6857;53.484;10.216;2024-03-23T04:29:47;18.73;;;4.27;;
13571;SDS011;6857;53.484;10.216;2024-03-23T04:32:14;21.23;;;4.13;;
13571;SDS011;6857;53.484;10.216;2024-03-23T04:34:39;18.87;;;3.80;;
13571;SDS011;6857;53.484;10.216;2024-03-23T04:37:05;19.13;;;3.70;;
13571;SDS011;6857;53.484;10.216;2024-03-23T04:39:30;25.13;;;4.53;;
13571;SDS011;6857;53.484;10.216;2024-03-23T04:41:56;24.30;;;3.77;;
13571;SDS011;6857;53.484;10.216;2024-03-23T04:44:21;20.03;;;4.70;;
13571;SDS011;6857;53.484;10.216;2024-03-23T04:46:47;18.97;;;3.73;;
13571;SDS011;6857;53.484;10.216;2024-03-23T04:49:12;19.87;;;4.33;;
13571;SDS011;6857;53.484;10.216;2024-03-23T04:51:38;23.50;;;7.00;;
13571;SDS011;6857;53.484;10.216;2024-03-23T04:54:04;26.37;;;4.93;;
13571;SDS011;6857;53.484;10.216;2024-03-23T04:56:30;23.17;;;4.63;;
13571;SDS011;6857;53.484;10.216;2024-03-23T04:58:56;19.17;;;4.77;;
13571;SDS011;6857;53.484;10.216;2024-03-23T05:01:26;24.20;;;4.33;;
13571;SDS011;6857;53.484;10.216;2024-03-23T05:03:52;16.17;;;3.77;;
13571;SDS011;6857;53.484;10.216;2024-03-23T05:06:18;16.40;;;4.07;;
13571;SDS011;6857;53.484;10.216;2024-03-23T05:08:44;27.00;;;4.83;;
13571;SDS011;6857;53.484;10.216;2024-03-23T05:11:11;18.60;;;4.47;;
13571;SDS011;6857;53.484;10.216;2024-03-23T05:13:36;18.83;;;3.83;;
13571;SDS011;6857;53.484;10.216;2024-03-23T05:16:02;23.27;;;5.17;;
13571;SDS011;6857;53.484;10.216;2024-03-23T05:18:27;15.43;;;4.20;;
13571;SDS011;6857;53.484;10.216;2024-03-23T05:20:57;19.13;;;3.90;;
13571;SDS011;6857;53.484;10.216;2024-03-23T05:23:23;14.97;;;3.50;;
13571;SDS011;6857;53.484;10.216;2024-03-23T05:25:50;14.50;;;3.73;;
13571;SDS011;6857;53.484;10.216;2024-03-23T05:28:16;19.93;;;4.20;;
13571;SDS011;6857;53.484;10.216;2024-03-23T05:30:42;13.27;;;3.93;;
13571;SDS011;6857;53.484;10.216;2024-03-23T05:33:08;29.77;;;4.90;;
13571;SDS011;6857;53.484;10.216;2024-03-23T05:35:33;24.93;;;4.87;;
13571;SDS011;6857;53.484;10.216;2024-03-23T05:37:59;21.57;;;4.40;;
13571;SDS011;6857;53.484;10.216;2024-03-23T05:40:27;15.43;;;4.33;;
13571;SDS011;6857;53.484;10.216;2024-03-23T05:42:53;19.63;;;5.07;;
13571;SDS011;6857;53.484;10.216;2024-03-23T05:45:23;18.83;;;3.90;;
13571;SDS011;6857;53.484;10.216;2024-03-23T05:47:58;20.80;;;4.60;;
13571;SDS011;6857;53.484;10.216;2024-03-23T05:50:27;18.63;;;4.63;;
13571;SDS011;6857;53.484;10.216;2024-03-23T05:53:27;20.10;;;3.93;;
13571;SDS011;6857;53.484;10.216;2024-03-23T05:56:02;16.53;;;4.00;;
13571;SDS011;6857;53.484;10.216;2024-03-23T05:58:32;17.20;;;3.83;;
13571;SDS011;6857;53.484;10.216;2024-03-23T06:00:58;17.13;;;4.63;;
13571;SDS011;6857;53.484;10.216;2024-03-23T06:03:25;16.37;;;4.50;;
13571;SDS011;6857;53.484;10.216;2024-03-23T06:05:51;20.03;;;3.77;;
13571;SDS011;6857;53.484;10.216;2024-03-23T06:08:18;21.07;;;4.83;;
13571;SDS011;6857;53.484;10.216;2024-03-23T06:10:44;13.33;;;3.20;;
13571;SDS011;6857;53.484;10.216;2024-03-23T06:13:13;19.93;;;3.30;;
13571;SDS011;6857;53.484;10.216;2024-03-23T06:15:39;15.17;;;4.57;;
13571;SDS011;6857;53.484;10.216;2024-03-23T06:18:08;25.60;;;3.50;;
13571;SDS011;6857;53.484;10.216;2024-03-23T06:20:34;18.83;;;4.00;;
13571;SDS011;6857;53.484;10.216;2024-03-23T06:23:02;17.40;;;4.40;;
13571;SDS011;6857;53.484;10.216;2024-03-23T06:25:28;20.00;;;4.57;;
13571;SDS011;6857;53.484;10.216;2024-03-23T06:28:00;20.17;;;3.80;;
13571;SDS011;6857;53.484;10.216;2024-03-23T06:30:29;13.97;;;3.73;;
13571;SDS011;6857;53.484;10.216;2024-03-23T06:32:57;29.00;;;4.70;;
13571;SDS011;6857;53.484;10.216;2024-03-23T06:35:22;17.03;;;4.17;;
13571;SDS011;6857;53.484;10.216;2024-03-23T06:37:50;14.27;;;3.60;;
13571;SDS011;6857;53.484;10.216;2024-03-23T06:40:20;22.73;;;3.93;;
13571;SDS011;6857;53.484;10.216;2024-03-23T06:42:45;19.43;;;4.57;;
13571;SDS011;6857;53.484;10.216;2024-03-23T06:45:11;23.67;;;4.13;;
13571;SDS011;6857;53.484;10.216;2024-03-23T06:47:39;16.80;;;3.27;;
13571;SDS011;6857;53.484;10.216;2024-03-23T06:50:05;18.33;;;3.73;;
13571;SDS011;6857;53.484;10.216;2024-03-23T06:52:31;15.33;;;3.63;;
13571;SDS011;6857;53.484;10.216;2024-03-23T06:55:00;16.57;;;4.60;;
13571;SDS011;6857;53.484;10.216;2024-03-23T06:57:26;25.63;;;4.20;;
13571;SDS011;6857;53.484;10.216;2024-03-23T06:59:51;18.10;;;3.83;;
13571;SDS011;6857;53.484;10.216;2024-03-23T07:02:17;16.33;;;4.33;;
13571;SDS011;6857;53.484;10.216;2024-03-23T07:04:43;15.97;;;3.37;;
13571;SDS011;6857;53.484;10.216;2024-03-23T07:07:12;13.50;;;3.27;;
13571;SDS011;6857;53.484;10.216;2024-03-23T07:09:37;18.47;;;3.57;;
13571;SDS011;6857;53.484;10.216;2024-03-23T07:12:03;23.37;;;3.73;;
13571;SDS011;6857;53.484;10.216;2024-03-23T07:14:29;16.77;;;3.17;;
13571;SDS011;6857;53.484;10.216;2024-03-23T07:17:01;10.83;;;2.90;;
13571;SDS011;6857;53.484;10.216;2024-03-23T07:19:29;18.40;;;3.93;;
13571;SDS011;6857;53.484;10.216;2024-03-23T07:22:01;11.27;;;2.90;;
13571;SDS011;6857;53.484;10.216;2024-03-23T07:24:27;12.50;;;3.20;;
13571;SDS011;6857;53.484;10.216;2024-03-23T07:26:52;20.90;;;3.93;;
13571;SDS011;6857;53.484;10.216;2024-03-23T07:29:19;17.53;;;3.67;;
13571;SDS011;6857;53.484;10.216;2024-03-23T07:31:44;14.57;;;3.30;;
13571;SDS011;6857;53.484;10.216;2024-03-23T07:34:10;16.00;;;3.87;;
13571;SDS011;6857;53.484;10.216;2024-03-23T07:36:35;13.33;;;2.83;;
13571;SDS011;6857;53.484;10.216;2024-03-23T07:39:01;16.13;;;3.67;;
13571;SDS011;6857;53.484;10.216;2024-03-23T07:41:26;17.67;;;3.13;;
13571;SDS011;6857;53.484;10.216;2024-03-23T07:43:53;14.23;;;3.30;;
13571;SDS011;6857;53.484;10.216;2024-03-23T07:46:20;15.47;;;3.40;;
13571;SDS011;6857;53.484;10.216;2024-03-23T07:48:46;12.60;;;2.93;;
13571;SDS011;6857;53.484;10.216;2024-03-23T07:51:16;13.33;;;3.50;;
13571;SDS011;6857;53.484;10.216;2024-03-23T07:53:44;16.80;;;3.57;;
13571;SDS011;6857;53.484;10.216;2024-03-23T07:56:13;19.43;;;3.40;;
13571;SDS011;6857;53.484;10.216;2024-03-23T07:58:40;13.57;;;3.47;;
13571;SDS011;6857;53.484;10.216;2024-03-23T08:01:07;17.60;;;3.57;;
13571;SDS011;6857;53.484;10.216;2024-03-23T08:03:34;11.50;;;3.13;;
13571;SDS011;6857;53.484;10.216;2024-03-23T08:06:06;14.10;;;3.03;;
13571;SDS011;6857;53.484;10.216;2024-03-23T08:08:40;14.73;;;3.70;;
13571;SDS011;6857;53.484;10.216;2024-03-23T08:11:06;11.63;;;2.37;;
13571;SDS011;6857;53.484;10.216;2024-03-23T08:13:33;10.43;;;2.70;;
13571;SDS011;6857;53.484;10.216;2024-03-23T08:16:03;12.10;;;2.83;;
13571;SDS011;6857;53.484;10.216;2024-03-23T08:18:29;13.77;;;3.50;;
13571;SDS011;6857;53.484;10.216;2024-03-23T08:23:26;15.27;;;3.30;;
13571;SDS011;6857;53.484;10.216;2024-03-23T08:26:03;16.40;;;3.63;;
13571;SDS011;6857;53.484;10.216;2024-03-23T08:28:29;15.87;;;3.40;;
13571;SDS011;6857;53.484;10.216;2024-03-23T08:30:55;11.93;;;2.80;;
13571;SDS011;6857;53.484;10.216;2024-03-23T08:33:21;17.23;;;2.77;;
13571;SDS011;6857;53.484;10.216;2024-03-23T08:35:57;19.63;;;4.00;;
13571;SDS011;6857;53.484;10.216;2024-03-23T08:38:24;13.43;;;2.63;;
13571;SDS011;6857;53.484;10.216;2024-03-23T08:41:03;9.37;;;2.60;;
13571;SDS011;6857;53.484;10.216;2024-03-23T08:43:31;16.37;;;2.60;;
13571;SDS011;6857;53.484;10.216;2024-03-23T08:46:06;9.93;;;2.60;;
13571;SDS011;6857;53.484;10.216;2024-03-23T08:48:37;14.47;;;3.33;;
13571;SDS011;6857;53.484;10.216;2024-03-23T08:51:08;21.17;;;3.30;;
13571;SDS011;6857;53.484;10.216;2024-03-23T08:53:37;12.40;;;3.30;;
13571;SDS011;6857;53.484;10.216;2024-03-23T08:56:03;14.97;;;3.03;;
13571;SDS011;6857;53.484;10.216;2024-03-23T08:58:29;11.00;;;3.03;;
13571;SDS011;6857;53.484;10.216;2024-03-23T09:00:56;15.13;;;3.57;;
13571;SDS011;6857;53.484;10.216;2024-03-23T09:03:27;11.23;;;3.10;;
13571;SDS011;6857;53.484;10.216;2024-03-23T09:05:53;12.17;;;3.30;;
13571;SDS011;6857;53.484;10.216;2024-03-23T09:08:20;10.17;;;3.10;;
13571;SDS011;6857;53.484;10.216;2024-03-23T09:10:46;11.03;;;3.30;;
13571;SDS011;6857;53.484;10.216;2024-03-23T09:13:12;11.50;;;2.90;;
13571;SDS011;6857;53.484;10.216;2024-03-23T09:15:45;10.10;;;2.83;;
13571;SDS011;6857;53.484;10.216;2024-03-23T09:18:12;12.30;;;2.90;;
13571;SDS011;6857;53.484;10.216;2024-03-23T09:20:38;10.60;;;2.83;;
13571;SDS011;6857;53.484;10.216;2024-03-23T09:23:04;10.60;;;2.40;;
13571;SDS011;6857;53.484;10.216;2024-03-23T09:25:29;12.43;;;2.83;;
13571;SDS011;6857;53.484;10.216;2024-03-23T09:27:55;7.90;;;2.40;;
13571;SDS011;6857;53.484;10.216;2024-03-23T09:30:20;9.50;;;2.83;;
13571;SDS011;6857;53.484;10.216;2024-03-23T09:32:46;8.50;;;2.23;;
13571;SDS011;6857;53.484;10.216;2024-03-23T09:35:12;13.10;;;2.80;;
13571;SDS011;6857;53.484;10.216;2024-03-23T09:37:38;10.57;;;2.33;;
13571;SDS011;6857;53.484;10.216;2024-03-23T09:40:09;11.50;;;3.33;;
13571;SDS011;6857;53.484;10.216;2024-03-23T09:42:36;13.07;;;2.30;;
13571;SDS011;6857;53.484;10.216;2024-03-23T09:45:05;7.93;;;2.47;;
13571;SDS011;6857;53.484;10.216;2024-03-23T09:47:34;9.60;;;2.37;;
13571;SDS011;6857;53.484;10.216;2024-03-23T09:50:00;14.87;;;2.20;;
13571;SDS011;6857;53.484;10.216;2024-03-23T09:52:26;9.30;;;2.43;;
13571;SDS011;6857;53.484;10.216;2024-03-23T09:54:52;7.30;;;2.13;;
13571;SDS011;6857;53.484;10.216;2024-03-23T09:57:17;10.27;;;2.57;;
13571;SDS011;6857;53.484;10.216;2024-03-23T09:59:43;7.83;;;2.43;;
13571;SDS011;6857;53.484;10.216;2024-03-23T10:02:08;12.87;;;2.33;;
13571;SDS011;6857;53.484;10.216;2024-03-23T10:04:39;5.77;;;2.00;;
13571;SDS011;6857;53.484;10.216;2024-03-23T10:07:10;6.93;;;1.80;;
13571;SDS011;6857;53.484;10.216;2024-03-23T10:09:37;8.63;;;1.90;;
13571;SDS011;6857;53.484;10.216;2024-03-23T10:12:09;6.67;;;1.90;;
13571;SDS011;6857;53.484;10.216;2024-03-23T10:14:36;7.73;;;1.90;;
13571;SDS011;6857;53.484;10.216;2024-03-23T10:17:21;5.80;;;1.60;;
13571;SDS011;6857;53.484;10.216;2024-03-23T10:19:50;7.47;;;1.53;;
13571;SDS011;6857;53.484;10.216;2024-03-23T10:22:18;5.43;;;1.93;;
13571;SDS011;6857;53.484;10.216;2024-03-23T10:24:47;7.13;;;1.47;;
13571;SDS011;6857;53.484;10.216;2024-03-23T10:27:17;9.63;;;2.13;;
13571;SDS011;6857;53.484;10.216;2024-03-23T10:29:44;5.27;;;1.83;;
13571;SDS011;6857;53.484;10.216;2024-03-23T10:32:11;7.23;;;1.60;;
13571;SDS011;6857;53.484;10.216;2024-03-23T10:34:38;7.60;;;2.10;;
13571;SDS011;6857;53.484;10.216;2024-03-23T10:37:04;9.73;;;2.00;;
13571;SDS011;6857;53.484;10.216;2024-03-23T10:39:35;7.83;;;1.80;;
13571;SDS011;6857;53.484;10.216;2024-03-23T10:42:08;7.90;;;1.90;;
13571;SDS011;6857;53.484;10.216;2024-03-23T10:44:35;9.87;;;2.40;;
13571;SDS011;6857;53.484;10.216;2024-03-23T10:47:01;10.27;;;2.07;;
13571;SDS011;6857;53.484;10.216;2024-03-23T10:49:34;6.50;;;1.77;;
13571;SDS011;6857;53.484;10.216;2024-03-23T10:52:00;8.67;;;1.70;;
13571;SDS011;6857;53.484;10.216;2024-03-23T10:54:28;5.40;;;1.70;;
13571;SDS011;6857;53.484;10.216;2024-03-23T10:57:09;6.90;;;1.70;;
13571;SDS011;6857;53.484;10.216;2024-03-23T10:59:39;7.60;;;1.90;;
13571;SDS011;6857;53.484;10.216;2024-03-23T11:02:05;6.70;;;1.50;;
13571;SDS011;6857;53.484;10.216;2024-03-23T11:04:36;8.13;;;2.00;;
13571;SDS011;6857;53.484;10.216;2024-03-23T11:09:49;4.40;;;1.30;;
13571;SDS011;6857;53.484;10.216;2024-03-23T11:12:25;5.93;;;1.90;;
13571;SDS011;6857;53.484;10.216;2024-03-23T11:15:01;7.53;;;1.70;;
13571;SDS011;6857;53.484;10.216;2024-03-23T11:17:33;7.00;;;1.50;;
13571;SDS011;6857;53.484;10.216;2024-03-23T11:22:40;5.90;;;1.27;;
13571;SDS011;6857;53.484;10.216;2024-03-23T11:27:41;3.77;;;1.07;;
13571;SDS011;6857;53.484;10.216;2024-03-23T11:30:13;2.30;;;0.90;;
13571;SDS011;6857;53.484;10.216;2024-03-23T11:32:42;3.27;;;1.20;;
13571;SDS011;6857;53.484;10.216;2024-03-23T11:35:08;4.73;;;1.40;;
13571;SDS011;6857;53.484;10.216;2024-03-23T11:37:35;6.60;;;2.60;;
13571;SDS011;6857;53.484;10.216;2024-03-23T11:40:15;7.67;;;1.03;;
13571;SDS011;6857;53.484;10.216;2024-03-23T11:42:42;6.67;;;1.47;;
13571;SDS011;6857;53.484;10.216;2024-03-23T11:45:08;5.70;;;1.40;;
13571;SDS011;6857;53.484;10.216;2024-03-23T11:47:34;4.53;;;1.33;;
13571;SDS011;6857;53.484;10.216;2024-03-23T11:50:00;5.30;;;1.53;;
13571;SDS011;6857;53.484;10.216;2024-03-23T11:52:25;7.87;;;1.40;;
13571;SDS011;6857;53.484;10.216;2024-03-23T11:54:51;5.70;;;1.70;;
13571;SDS011;6857;53.484;10.216;2024-03-23T11:57:16;7.60;;;2.10;;
13571;SDS011;6857;53.484;10.216;2024-03-23T11:59:42;6.83;;;1.87;;
13571;SDS011;6857;53.484;10.216;2024-03-23T12:02:10;4.07;;;1.07;;
13571;SDS011;6857;53.484;10.216;2024-03-23T12:04:37;4.83;;;1.93;;
13571;SDS011;6857;53.484;10.216;2024-03-23T12:07:16;6.57;;;1.67;;
13571;SDS011;6857;53.484;10.216;2024-03-23T12:09:47;4.63;;;1.00;;
13571;SDS011;6857;53.484;10.216;2024-03-23T12:12:31;2.70;;;1.37;;
13571;SDS011;6857;53.484;10.216;2024-03-23T12:15:07;5.87;;;1.00;;
13571;SDS011;6857;53.484;10.216;2024-03-23T12:17:33;3.97;;;1.10;;
13571;SDS011;6857;53.484;10.216;2024-03-23T12:20:02;4.43;;;0.90;;
13571;SDS011;6857;53.484;10.216;2024-03-23T12:22:29;4.87;;;1.40;;
13571;SDS011;6857;53.484;10.216;2024-03-23T12:24:55;4.17;;;1.10;;
13571;SDS011;6857;53.484;10.216;2024-03-23T12:27:20;4.47;;;1.40;;
13571;SDS011;6857;53.484;10.216;2024-03-23T12:29:46;6.33;;;1.40;;
13571;SDS011;6857;53.484;10.216;2024-03-23T12:32:12;2.33;;;1.10;;
13571;SDS011;6857;53.484;10.216;2024-03-23T12:34:38;4.20;;;1.03;;
13571;SDS011;6857;53.484;10.216;2024-03-23T12:37:04;3.37;;;0.80;;
13571;SDS011;6857;53.484;10.216;2024-03-23T12:39:37;4.77;;;1.30;;
13571;SDS011;6857;53.484;10.216;2024-03-23T12:42:03;3.57;;;1.33;;
13571;SDS011;6857;53.484;10.216;2024-03-23T12:44:29;2.93;;;1.03;;
13571;SDS011;6857;53.484;10.216;2024-03-23T12:46:54;4.90;;;1.60;;
13571;SDS011;6857;53.484;10.216;2024-03-23T12:49:20;3.07;;;0.70;;
13571;SDS011;6857;53.484;10.216;2024-03-23T12:51:48;1.40;;;0.60;;
13571;SDS011;6857;53.484;10.216;2024-03-23T12:54:22;6.40;;;1.20;;
13571;SDS011;6857;53.484;10.216;2024-03-23T12:56:49;2.53;;;0.90;;
13571;SDS011;6857;53.484;10.216;2024-03-23T12:59:14;2.23;;;0.70;;
13571;SDS011;6857;53.484;10.216;2024-03-23T13:01:41;3.00;;;0.97;;
13571;SDS011;6857;53.484;10.216;2024-03-23T13:04:08;2.37;;;0.87;;
13571;SDS011;6857;53.484;10.216;2024-03-23T13:06:34;2.17;;;0.50;;
13571;SDS011;6857;53.484;10.216;2024-03-23T13:09:02;1.40;;;0.70;;
13571;SDS011;6857;53.484;10.216;2024-03-23T13:11:28;1.73;;;0.80;;
13571;SDS011;6857;53.484;10.216;2024-03-23T13:13:54;1.30;;;0.70;;
13571;SDS011;6857;53.484;10.216;2024-03-23T13:16:20;1.33;;;0.60;;
13571;SDS011;6857;53.484;10.216;2024-03-23T13:18:45;2.40;;;0.70;;
13571;SDS011;6857;53.484;10.216;2024-03-23T13:21:11;2.83;;;0.70;;
13571;SDS011;6857;53.484;10.216;2024-03-23T13:23:37;3.90;;;1.20;;
13571;SDS011;6857;53.484;10.216;2024-03-23T13:26:05;3.93;;;1.07;;
13571;SDS011;6857;53.484;10.216;2024-03-23T13:28:30;1.83;;;0.90;;
13571;SDS011;6857;53.484;10.216;2024-03-23T13:30:56;4.60;;;1.10;;
13571;SDS011;6857;53.484;10.216;2024-03-23T13:33:28;1.83;;;0.90;;
13571;SDS011;6857;53.484;10.216;2024-03-23T13:35:55;3.17;;;1.00;;
13571;SDS011;6857;53.484;10.216;2024-03-23T13:38:21;1.97;;;0.87;;
13571;SDS011;6857;53.484;10.216;2024-03-23T13:43:20;2.10;;;1.07;;
13571;SDS011;6857;53.484;10.216;2024-03-23T13:45:49;2.87;;;0.90;;
13571;SDS011;6857;53.484;10.216;2024-03-23T13:48:21;3.57;;;0.87;;
13571;SDS011;6857;53.484;10.216;2024-03-23T13:51:03;1.27;;;0.80;;
13571;SDS011;6857;53.484;10.216;2024-03-23T13:53:29;3.43;;;0.90;;
13571;SDS011;6857;53.484;10.216;2024-03-23T13:55:55;3.00;;;1.00;;
13571;SDS011;6857;53.484;10.216;2024-03-23T13:58:21;4.23;;;1.50;;
13571;SDS011;6857;53.484;10.216;2024-03-23T14:00:48;3.57;;;1.00;;
13571;SDS011;6857;53.484;10.216;2024-03-23T14:03:14;2.47;;;0.77;;
13571;SDS011;6857;53.484;10.216;2024-03-23T14:05:40;4.20;;;0.80;;
13571;SDS011;6857;53.484;10.216;2024-03-23T14:08:06;2.70;;;1.10;;
13571;SDS011;6857;53.484;10.216;2024-03-23T14:10:32;0.93;;;0.70;;
13571;SDS011;6857;53.484;10.216;2024-03-23T14:12:58;2.87;;;0.90;;
13571;SDS011;6857;53.484;10.216;2024-03-23T14:15:28;2.00;;;0.63;;
13571;SDS011;6857;53.484;10.216;2024-03-23T14:17:55;3.37;;;0.70;;
13571;SDS011;6857;53.484;10.216;2024-03-23T14:20:21;1.83;;;0.67;;
13571;SDS011;6857;53.484;10.216;2024-03-23T14:22:47;1.90;;;0.50;;
13571;SDS011;6857;53.484;10.216;2024-03-23T14:25:15;1.33;;;0.70;;
13571;SDS011;6857;53.484;10.216;2024-03-23T14:27:43;1.80;;;0.80;;
13571;SDS011;6857;53.484;10.216;2024-03-23T14:30:10;2.50;;;0.93;;
13571;SDS011;6857;53.484;10.216;2024-03-23T14:32:36;3.50;;;0.87;;
13571;SDS011;6857;53.484;10.216;2024-03-23T14:35:05;4.00;;;0.90;;
13571;SDS011;6857;53.484;10.216;2024-03-23T14:37:36;5.60;;;2.33;;
13571;SDS011;6857;53.484;10.216;2024-03-23T14:40:03;2.30;;;0.73;;
13571;SDS011;6857;53.484;10.216;2024-03-23T14:42:29;3.90;;;0.83;;
13571;SDS011;6857;53.484;10.216;2024-03-23T14:44:56;5.00;;;1.37;;
13571;SDS011;6857;53.484;10.216;2024-03-23T14:47:21;6.77;;;1.30;;
13571;SDS011;6857;53.484;10.216;2024-03-23T14:49:47;2.37;;;0.67;;
13571;SDS011;6857;53.484;10.216;2024-03-23T14:52:15;2.97;;;0.83;;
13571;SDS011;6857;53.484;10.216;2024-03-23T14:54:44;2.93;;;0.97;;
13571;SDS011;6857;53.484;10.216;2024-03-23T14:57:09;5.67;;;1.20;;
13571;SDS011;6857;53.484;10.216;2024-03-23T14:59:35;3.57;;;1.03;;
13571;SDS011;6857;53.484;10.216;2024-03-23T15:02:03;3.53;;;1.30;;
13571;SDS011;6857;53.484;10.216;2024-03-23T15:04:29;3.83;;;0.90;;
13571;SDS011;6857;53.484;10.216;2024-03-23T15:06:54;4.80;;;1.30;;
13571;SDS011;6857;53.484;10.216;2024-03-23T15:09:20;4.97;;;1.20;;
13571;SDS011;6857;53.484;10.216;2024-03-23T15:11:45;3.83;;;1.47;;
13571;SDS011;6857;53.484;10.216;2024-03-23T15:14:11;5.67;;;1.43;;
13571;SDS011;6857;53.484;10.216;2024-03-23T15:16:37;5.30;;;1.33;;
13571;SDS011;6857;53.484;10.216;2024-03-23T15:19:02;4.80;;;1.00;;
13571;SDS011;6857;53.484;10.216;2024-03-23T15:21:30;6.03;;;1.30;;
13571;SDS011;6857;53.484;10.216;2024-03-23T15:23:56;5.37;;;1.20;;
13571;SDS011;6857;53.484;10.216;2024-03-23T15:26:22;4.73;;;1.40;;
13571;SDS011;6857;53.484;10.216;2024-03-23T15:28:48;4.57;;;1.30;;
13571;SDS011;6857;53.484;10.216;2024-03-23T15:31:22;4.87;;;1.20;;
13571;SDS011;6857;53.484;10.216;2024-03-23T15:33:48;5.23;;;1.13;;
13571;SDS011;6857;53.484;10.216;2024-03-23T15:36:14;4.60;;;1.10;;
13571;SDS011;6857;53.484;10.216;2024-03-23T15:38:40;2.47;;;0.80;;
13571;SDS011;6857;53.484;10.216;2024-03-23T15:41:06;1.47;;;0.60;;
13571;SDS011;6857;53.484;10.216;2024-03-23T15:43:32;1.90;;;0.60;;
13571;SDS011;6857;53.484;10.216;2024-03-23T15:45:59;1.53;;;0.50;;